sensor_id;sensor_type;location;lat;lon;timestamp;temperature;humidity
11925;DHT22;6022;48.768;18.608;2023-11-18T00:01:10;4.20;99.90
11925;DHT22;6022;48.768;18.608;2023-11-18T00:03:42;4.00;99.90
11925;DHT22;6022;48.768;18.608;2023-11-18T00:06:11;4.00;99.90
11925;DHT22;6022;48.768;18.608;2023-11-18T00:11:07;4.60;99.90
11925;DHT22;6022;48.768;18.608;2023-11-18T00:16:07;3.50;99.90
11925;DHT22;6022;48.768;18.608;2023-11-18T00:21:14;4.40;99.90
11925;DHT22;6022;48.768;18.608;2023-11-18T00:26:15;4.50;99.90
11925;DHT22;6022;48.768;18.608;2023-11-18T00:31:12;4.00;99.90
11925;DHT22;6022;48.768;18.608;2023-11-18T00:36:08;4.30;99.90
11925;DHT22;6022;48.768;18.608;2023-11-18T00:38:37;4.40;99.90
11925;DHT22;6022;48.768;18.608;2023-11-18T00:41:06;3.40;99.90
11925;DHT22;6022;48.768;18.608;2023-11-18T00:43:34;4.60;99.90
11925;DHT22;6022;48.768;18.608;2023-11-18T00:48:32;4.80;99.90
11925;DHT22;6022;48.768;18.608;2023-11-18T00:53:30;3.70;99.90
11925;DHT22;6022;48.768;18.608;2023-11-18T00:58:28;4.40;99.90
11925;DHT22;6022;48.768;18.608;2023-11-18T01:08:21;4.00;99.90
11925;DHT22;6022;48.768;18.608;2023-11-18T01:10:50;4.20;99.90
11925;DHT22;6022;48.768;18.608;2023-11-18T01:13:18;4.20;99.90
11925;DHT22;6022;48.768;18.608;2023-11-18T01:15:48;4.10;99.90
11925;DHT22;6022;48.768;18.608;2023-11-18T01:18:17;3.70;99.90
11925;DHT22;6022;48.768;18.608;2023-11-18T01:20:45;3.90;99.90
11925;DHT22;6022;48.768;18.608;2023-11-18T01:23:14;4.80;99.90
11925;DHT22;6022;48.768;18.608;2023-11-18T01:25:43;4.10;99.90
11925;DHT22;6022;48.768;18.608;2023-11-18T01:30:39;4.10;99.90
11925;DHT22;6022;48.768;18.608;2023-11-18T01:33:09;4.10;99.90
11925;DHT22;6022;48.768;18.608;2023-11-18T01:35:38;3.70;99.90
11925;DHT22;6022;48.768;18.608;2023-11-18T01:40:35;3.40;99.90
11925;DHT22;6022;48.768;18.608;2023-11-18T01:50:38;4.00;99.90
11925;DHT22;6022;48.768;18.608;2023-11-18T01:53:08;4.40;99.90
11925;DHT22;6022;48.768;18.608;2023-11-18T01:55:38;3.90;99.90
11925;DHT22;6022;48.768;18.608;2023-11-18T02:00:40;4.00;99.90
11925;DHT22;6022;48.768;18.608;2023-11-18T02:03:10;4.10;99.90
11925;DHT22;6022;48.768;18.608;2023-11-18T02:05:39;3.70;99.90
11925;DHT22;6022;48.768;18.608;2023-11-18T02:10:47;4.70;99.90
11925;DHT22;6022;48.768;18.608;2023-11-18T02:13:25;4.30;99.90
11925;DHT22;6022;48.768;18.608;2023-11-18T02:15:57;4.90;99.90
11925;DHT22;6022;48.768;18.608;2023-11-18T02:18:28;4.00;99.90
11925;DHT22;6022;48.768;18.608;2023-11-18T02:23:26;4.60;99.90
11925;DHT22;6022;48.768;18.608;2023-11-18T02:25:55;4.50;99.90
11925;DHT22;6022;48.768;18.608;2023-11-18T02:31:03;4.50;99.90
11925;DHT22;6022;48.768;18.608;2023-11-18T02:34:04;6.40;99.90
11925;DHT22;6022;48.768;18.608;2023-11-18T02:36:41;4.80;99.90
11925;DHT22;6022;48.768;18.608;2023-11-18T02:39:21;4.00;99.90
11925;DHT22;6022;48.768;18.608;2023-11-18T02:41:52;4.70;99.90
11925;DHT22;6022;48.768;18.608;2023-11-18T02:46:53;4.40;99.90
11925;DHT22;6022;48.768;18.608;2023-11-18T02:54:28;4.70;99.90
11925;DHT22;6022;48.768;18.608;2023-11-18T02:56:57;4.40;99.90
11925;DHT22;6022;48.768;18.608;2023-11-18T03:01:57;3.60;99.90
11925;DHT22;6022;48.768;18.608;2023-11-18T03:04:25;3.80;99.90
11925;DHT22;6022;48.768;18.608;2023-11-18T03:07:01;4.20;99.90
11925;DHT22;6022;48.768;18.608;2023-11-18T03:09:29;4.20;99.90
11925;DHT22;6022;48.768;18.608;2023-11-18T03:14:27;4.20;99.90
11925;DHT22;6022;48.768;18.608;2023-11-18T03:16:56;4.20;99.90
11925;DHT22;6022;48.768;18.608;2023-11-18T03:19:26;4.30;99.90
11925;DHT22;6022;48.768;18.608;2023-11-18T03:21:54;4.10;99.90
11925;DHT22;6022;48.768;18.608;2023-11-18T03:26:56;3.10;99.90
11925;DHT22;6022;48.768;18.608;2023-11-18T03:29:26;3.90;99.90
11925;DHT22;6022;48.768;18.608;2023-11-18T03:31:53;3.90;99.90
11925;DHT22;6022;48.768;18.608;2023-11-18T03:34:22;3.90;99.90
11925;DHT22;6022;48.768;18.608;2023-11-18T03:41:51;4.20;99.90
11925;DHT22;6022;48.768;18.608;2023-11-18T03:46:47;4.20;99.90
11925;DHT22;6022;48.768;18.608;2023-11-18T03:49:15;4.10;99.90
11925;DHT22;6022;48.768;18.608;2023-11-18T03:51:44;4.00;99.90
11925;DHT22;6022;48.768;18.608;2023-11-18T03:54:12;4.30;99.90
11925;DHT22;6022;48.768;18.608;2023-11-18T03:59:12;3.90;99.90
11925;DHT22;6022;48.768;18.608;2023-11-18T04:01:41;4.30;99.90
11925;DHT22;6022;48.768;18.608;2023-11-18T04:04:08;4.00;99.90
11925;DHT22;6022;48.768;18.608;2023-11-18T04:06:38;3.90;99.90
11925;DHT22;6022;48.768;18.608;2023-11-18T04:09:06;3.90;99.90
11925;DHT22;6022;48.768;18.608;2023-11-18T04:11:36;4.30;99.90
11925;DHT22;6022;48.768;18.608;2023-11-18T04:16:35;3.90;99.90
11925;DHT22;6022;48.768;18.608;2023-11-18T04:21:34;4.30;99.90
11925;DHT22;6022;48.768;18.608;2023-11-18T04:24:02;4.30;99.90
11925;DHT22;6022;48.768;18.608;2023-11-18T04:26:31;4.10;99.90
11925;DHT22;6022;48.768;18.608;2023-11-18T04:31:27;3.60;99.90
11925;DHT22;6022;48.768;18.608;2023-11-18T04:36:26;4.80;99.90
11925;DHT22;6022;48.768;18.608;2023-11-18T04:38:54;4.00;99.90
11925;DHT22;6022;48.768;18.608;2023-11-18T04:41:25;4.30;99.90
11925;DHT22;6022;48.768;18.608;2023-11-18T04:43:53;4.30;99.90
11925;DHT22;6022;48.768;18.608;2023-11-18T04:48:54;4.10;99.90
11925;DHT22;6022;48.768;18.608;2023-11-18T04:53:51;4.50;99.90
11925;DHT22;6022;48.768;18.608;2023-11-18T04:58:53;4.50;99.90
11925;DHT22;6022;48.768;18.608;2023-11-18T05:03:50;4.40;99.90
11925;DHT22;6022;48.768;18.608;2023-11-18T05:06:18;4.10;99.90
11925;DHT22;6022;48.768;18.608;2023-11-18T05:08:48;4.30;99.90
11925;DHT22;6022;48.768;18.608;2023-11-18T05:11:17;4.10;99.90
11925;DHT22;6022;48.768;18.608;2023-11-18T05:13:46;3.50;99.90
11925;DHT22;6022;48.768;18.608;2023-11-18T05:16:14;4.30;99.90
11925;DHT22;6022;48.768;18.608;2023-11-18T05:18:43;4.50;99.90
11925;DHT22;6022;48.768;18.608;2023-11-18T05:21:11;4.30;99.90
11925;DHT22;6022;48.768;18.608;2023-11-18T05:26:08;4.80;99.90
11925;DHT22;6022;48.768;18.608;2023-11-18T05:28:37;4.60;99.90
11925;DHT22;6022;48.768;18.608;2023-11-18T05:31:06;4.30;99.90
11925;DHT22;6022;48.768;18.608;2023-11-18T05:33:36;4.30;99.90
11925;DHT22;6022;48.768;18.608;2023-11-18T05:36:05;4.40;99.90
11925;DHT22;6022;48.768;18.608;2023-11-18T05:41:03;4.10;99.90
11925;DHT22;6022;48.768;18.608;2023-11-18T05:43:36;1.80;99.90
11925;DHT22;6022;48.768;18.608;2023-11-18T05:46:27;4.70;99.90
11925;DHT22;6022;48.768;18.608;2023-11-18T05:49:04;4.70;99.90
11925;DHT22;6022;48.768;18.608;2023-11-18T05:51:54;3.90;99.90
11925;DHT22;6022;48.768;18.608;2023-11-18T05:54:50;4.20;99.90
11925;DHT22;6022;48.768;18.608;2023-11-18T05:57:20;4.50;99.90
11925;DHT22;6022;48.768;18.608;2023-11-18T05:59:48;4.00;99.90
11925;DHT22;6022;48.768;18.608;2023-11-18T06:02:20;3.80;99.90
11925;DHT22;6022;48.768;18.608;2023-11-18T06:04:51;4.00;99.90
11925;DHT22;6022;48.768;18.608;2023-11-18T06:07:45;4.30;99.90
11925;DHT22;6022;48.768;18.608;2023-11-18T06:10:37;4.00;99.90
11925;DHT22;6022;48.768;18.608;2023-11-18T06:13:07;3.60;99.90
11925;DHT22;6022;48.768;18.608;2023-11-18T06:15:36;4.00;99.90
11925;DHT22;6022;48.768;18.608;2023-11-18T06:18:09;4.70;99.90
11925;DHT22;6022;48.768;18.608;2023-11-18T06:20:39;3.80;99.90
11925;DHT22;6022;48.768;18.608;2023-11-18T06:31:35;3.60;99.90
11925;DHT22;6022;48.768;18.608;2023-11-18T06:36:38;4.30;99.90
11925;DHT22;6022;48.768;18.608;2023-11-18T06:39:27;3.80;99.90
11925;DHT22;6022;48.768;18.608;2023-11-18T06:41:57;4.10;99.90
11925;DHT22;6022;48.768;18.608;2023-11-18T06:44:32;3.70;99.90
11925;DHT22;6022;48.768;18.608;2023-11-18T06:47:09;3.80;99.90
11925;DHT22;6022;48.768;18.608;2023-11-18T06:52:09;4.10;99.90
11925;DHT22;6022;48.768;18.608;2023-11-18T06:57:11;4.50;99.90
11925;DHT22;6022;48.768;18.608;2023-11-18T06:59:47;3.60;99.90
11925;DHT22;6022;48.768;18.608;2023-11-18T07:02:18;3.60;99.90
11925;DHT22;6022;48.768;18.608;2023-11-18T07:04:48;3.80;99.90
11925;DHT22;6022;48.768;18.608;2023-11-18T07:07:16;3.90;99.90
11925;DHT22;6022;48.768;18.608;2023-11-18T07:09:49;3.80;99.90
11925;DHT22;6022;48.768;18.608;2023-11-18T07:12:23;3.80;99.90
11925;DHT22;6022;48.768;18.608;2023-11-18T07:15:05;3.50;99.90
11925;DHT22;6022;48.768;18.608;2023-11-18T07:20:16;3.80;99.90
11925;DHT22;6022;48.768;18.608;2023-11-18T07:22:48;4.50;99.90
11925;DHT22;6022;48.768;18.608;2023-11-18T07:25:20;4.60;99.90
11925;DHT22;6022;48.768;18.608;2023-11-18T07:27:52;4.80;99.90
11925;DHT22;6022;48.768;18.608;2023-11-18T07:30:26;5.50;99.90
11925;DHT22;6022;48.768;18.608;2023-11-18T07:32:57;5.10;99.90
11925;DHT22;6022;48.768;18.608;2023-11-18T07:35:29;5.50;99.90
11925;DHT22;6022;48.768;18.608;2023-11-18T07:38:06;4.90;99.90
11925;DHT22;6022;48.768;18.608;2023-11-18T07:40:43;4.70;99.90
11925;DHT22;6022;48.768;18.608;2023-11-18T07:43:15;5.20;99.90
11925;DHT22;6022;48.768;18.608;2023-11-18T07:45:43;5.40;99.90
11925;DHT22;6022;48.768;18.608;2023-11-18T07:51:21;5.60;99.90
11925;DHT22;6022;48.768;18.608;2023-11-18T07:53:55;5.80;99.90
11925;DHT22;6022;48.768;18.608;2023-11-18T07:56:35;5.70;99.90
11925;DHT22;6022;48.768;18.608;2023-11-18T07:59:04;6.50;99.90
11925;DHT22;6022;48.768;18.608;2023-11-18T08:01:36;5.50;99.90
11925;DHT22;6022;48.768;18.608;2023-11-18T08:04:08;6.20;99.90
11925;DHT22;6022;48.768;18.608;2023-11-18T08:06:37;5.20;99.90
11925;DHT22;6022;48.768;18.608;2023-11-18T08:11:39;6.30;99.90
11925;DHT22;6022;48.768;18.608;2023-11-18T08:14:08;6.50;99.90
11925;DHT22;6022;48.768;18.608;2023-11-18T08:16:37;6.60;99.90
11925;DHT22;6022;48.768;18.608;2023-11-18T08:19:28;5.90;99.90
11925;DHT22;6022;48.768;18.608;2023-11-18T08:21:56;5.90;99.90
11925;DHT22;6022;48.768;18.608;2023-11-18T08:24:26;5.80;99.90
11925;DHT22;6022;48.768;18.608;2023-11-18T08:26:59;5.40;99.90
11925;DHT22;6022;48.768;18.608;2023-11-18T08:29:32;5.60;99.90
11925;DHT22;6022;48.768;18.608;2023-11-18T08:32:01;5.60;99.90
11925;DHT22;6022;48.768;18.608;2023-11-18T08:34:32;4.90;99.90
11925;DHT22;6022;48.768;18.608;2023-11-18T08:37:00;5.60;99.90
11925;DHT22;6022;48.768;18.608;2023-11-18T08:39:30;5.70;99.90
11925;DHT22;6022;48.768;18.608;2023-11-18T08:54:30;5.70;99.90
11925;DHT22;6022;48.768;18.608;2023-11-18T08:59:51;6.60;99.90
11925;DHT22;6022;48.768;18.608;2023-11-18T09:02:20;5.60;99.90
11925;DHT22;6022;48.768;18.608;2023-11-18T09:04:54;6.00;99.90
11925;DHT22;6022;48.768;18.608;2023-11-18T09:07:23;6.20;99.90
11925;DHT22;6022;48.768;18.608;2023-11-18T09:12:22;6.70;99.90
11925;DHT22;6022;48.768;18.608;2023-11-18T09:14:56;6.50;99.90
11925;DHT22;6022;48.768;18.608;2023-11-18T09:17:27;6.50;99.90
11925;DHT22;6022;48.768;18.608;2023-11-18T09:19:56;6.20;99.90
11925;DHT22;6022;48.768;18.608;2023-11-18T09:22:24;6.50;99.90
11925;DHT22;6022;48.768;18.608;2023-11-18T09:24:54;6.60;99.90
11925;DHT22;6022;48.768;18.608;2023-11-18T09:27:24;7.50;99.90
11925;DHT22;6022;48.768;18.608;2023-11-18T09:29:52;6.90;99.90
11925;DHT22;6022;48.768;18.608;2023-11-18T09:32:23;7.00;99.90
11925;DHT22;6022;48.768;18.608;2023-11-18T09:34:54;7.80;99.90
11925;DHT22;6022;48.768;18.608;2023-11-18T09:37:27;7.70;99.90
11925;DHT22;6022;48.768;18.608;2023-11-18T09:39:56;7.80;99.90
11925;DHT22;6022;48.768;18.608;2023-11-18T09:42:26;7.90;99.90
11925;DHT22;6022;48.768;18.608;2023-11-18T09:44:57;7.10;99.90
11925;DHT22;6022;48.768;18.608;2023-11-18T09:47:29;8.10;99.90
11925;DHT22;6022;48.768;18.608;2023-11-18T09:49:57;7.50;99.90
11925;DHT22;6022;48.768;18.608;2023-11-18T09:52:30;7.70;99.90
11925;DHT22;6022;48.768;18.608;2023-11-18T09:55:03;7.00;99.90
11925;DHT22;6022;48.768;18.608;2023-11-18T09:57:44;7.00;99.90
11925;DHT22;6022;48.768;18.608;2023-11-18T10:00:26;7.30;99.90
11925;DHT22;6022;48.768;18.608;2023-11-18T10:03:00;7.50;99.90
11925;DHT22;6022;48.768;18.608;2023-11-18T10:05:29;7.70;99.90
11925;DHT22;6022;48.768;18.608;2023-11-18T10:07:58;7.40;99.90
11925;DHT22;6022;48.768;18.608;2023-11-18T10:10:26;7.00;99.90
11925;DHT22;6022;48.768;18.608;2023-11-18T10:13:05;7.30;99.90
11925;DHT22;6022;48.768;18.608;2023-11-18T10:15:50;7.00;99.90
11925;DHT22;6022;48.768;18.608;2023-11-18T10:18:22;6.80;99.90
11925;DHT22;6022;48.768;18.608;2023-11-18T10:20:51;6.40;99.90
11925;DHT22;6022;48.768;18.608;2023-11-18T10:23:22;6.00;99.90
11925;DHT22;6022;48.768;18.608;2023-11-18T10:25:52;5.70;99.90
11925;DHT22;6022;48.768;18.608;2023-11-18T10:31:05;5.30;99.90
11925;DHT22;6022;48.768;18.608;2023-11-18T10:33:42;5.50;99.90
11925;DHT22;6022;48.768;18.608;2023-11-18T10:36:21;5.90;99.90
11925;DHT22;6022;48.768;18.608;2023-11-18T10:38:53;6.80;99.90
11925;DHT22;6022;48.768;18.608;2023-11-18T10:41:40;7.40;99.90
11925;DHT22;6022;48.768;18.608;2023-11-18T10:44:14;7.30;99.90
11925;DHT22;6022;48.768;18.608;2023-11-18T10:46:51;7.10;99.90
11925;DHT22;6022;48.768;18.608;2023-11-18T10:49:28;6.70;99.90
11925;DHT22;6022;48.768;18.608;2023-11-18T10:52:07;7.20;99.90
11925;DHT22;6022;48.768;18.608;2023-11-18T10:55:11;7.20;99.90
11925;DHT22;6022;48.768;18.608;2023-11-18T10:57:40;7.00;99.90
11925;DHT22;6022;48.768;18.608;2023-11-18T11:00:23;7.40;99.90
11925;DHT22;6022;48.768;18.608;2023-11-18T11:03:09;7.00;99.90
11925;DHT22;6022;48.768;18.608;2023-11-18T11:05:41;7.70;99.90
11925;DHT22;6022;48.768;18.608;2023-11-18T11:08:19;7.60;99.90
11925;DHT22;6022;48.768;18.608;2023-11-18T11:11:25;7.20;99.90
11925;DHT22;6022;48.768;18.608;2023-11-18T11:14:12;7.40;99.90
11925;DHT22;6022;48.768;18.608;2023-11-18T11:20:59;6.40;99.90
11925;DHT22;6022;48.768;18.608;2023-11-18T11:23:54;6.20;99.90
11925;DHT22;6022;48.768;18.608;2023-11-18T11:29:45;7.10;99.90
11925;DHT22;6022;48.768;18.608;2023-11-18T11:32:45;5.90;99.90
11925;DHT22;6022;48.768;18.608;2023-11-18T11:35:32;6.60;99.90
11925;DHT22;6022;48.768;18.608;2023-11-18T11:40:54;7.30;99.90
11925;DHT22;6022;48.768;18.608;2023-11-18T11:43:23;8.00;99.90
11925;DHT22;6022;48.768;18.608;2023-11-18T11:45:57;7.60;99.90
11925;DHT22;6022;48.768;18.608;2023-11-18T11:48:25;6.90;99.90
11925;DHT22;6022;48.768;18.608;2023-11-18T11:56:44;6.60;99.90
11925;DHT22;6022;48.768;18.608;2023-11-18T11:59:35;7.20;99.90
11925;DHT22;6022;48.768;18.608;2023-11-18T12:02:04;7.00;99.90
11925;DHT22;6022;48.768;18.608;2023-11-18T12:07:08;7.00;99.90
11925;DHT22;6022;48.768;18.608;2023-11-18T12:09:47;6.80;99.90
11925;DHT22;6022;48.768;18.608;2023-11-18T12:12:20;7.20;99.90
11925;DHT22;6022;48.768;18.608;2023-11-18T12:14:52;6.50;99.90
11925;DHT22;6022;48.768;18.608;2023-11-18T12:17:27;6.40;99.90
11925;DHT22;6022;48.768;18.608;2023-11-18T12:20:00;6.50;99.90
11925;DHT22;6022;48.768;18.608;2023-11-18T12:23:02;6.20;99.90
11925;DHT22;6022;48.768;18.608;2023-11-18T12:25:54;6.50;99.90
11925;DHT22;6022;48.768;18.608;2023-11-18T12:28:29;6.60;99.90
11925;DHT22;6022;48.768;18.608;2023-11-18T12:31:39;6.80;99.90
11925;DHT22;6022;48.768;18.608;2023-11-18T12:34:10;8.00;99.90
11925;DHT22;6022;48.768;18.608;2023-11-18T12:40:52;7.80;99.90
11925;DHT22;6022;48.768;18.608;2023-11-18T12:49:00;8.00;99.90
11925;DHT22;6022;48.768;18.608;2023-11-18T12:51:31;7.90;99.90
11925;DHT22;6022;48.768;18.608;2023-11-18T12:54:01;8.70;99.90
11925;DHT22;6022;48.768;18.608;2023-11-18T12:56:29;8.80;99.90
11925;DHT22;6022;48.768;18.608;2023-11-18T12:58:58;8.00;99.90
11925;DHT22;6022;48.768;18.608;2023-11-18T13:01:26;8.40;99.90
11925;DHT22;6022;48.768;18.608;2023-11-18T13:03:55;7.80;99.90
11925;DHT22;6022;48.768;18.608;2023-11-18T13:06:22;7.80;99.90
11925;DHT22;6022;48.768;18.608;2023-11-18T13:08:56;8.30;99.90
11925;DHT22;6022;48.768;18.608;2023-11-18T13:11:25;8.10;99.90
11925;DHT22;6022;48.768;18.608;2023-11-18T13:13:55;7.30;99.90
11925;DHT22;6022;48.768;18.608;2023-11-18T13:16:36;7.60;99.90
11925;DHT22;6022;48.768;18.608;2023-11-18T13:19:07;7.80;99.90
11925;DHT22;6022;48.768;18.608;2023-11-18T13:21:40;8.10;99.90
11925;DHT22;6022;48.768;18.608;2023-11-18T13:24:08;7.20;99.90
11925;DHT22;6022;48.768;18.608;2023-11-18T13:26:36;7.60;99.90
11925;DHT22;6022;48.768;18.608;2023-11-18T13:29:05;7.60;99.90
11925;DHT22;6022;48.768;18.608;2023-11-18T13:31:34;7.90;99.90
11925;DHT22;6022;48.768;18.608;2023-11-18T13:34:10;8.00;99.90
11925;DHT22;6022;48.768;18.608;2023-11-18T13:37:30;7.90;99.90
11925;DHT22;6022;48.768;18.608;2023-11-18T13:40:00;7.80;99.90
11925;DHT22;6022;48.768;18.608;2023-11-18T13:42:39;7.80;99.90
11925;DHT22;6022;48.768;18.608;2023-11-18T13:45:12;7.60;99.90
11925;DHT22;6022;48.768;18.608;2023-11-18T13:48:05;7.60;99.90
11925;DHT22;6022;48.768;18.608;2023-11-18T13:50:40;7.70;99.90
11925;DHT22;6022;48.768;18.608;2023-11-18T13:53:25;7.20;99.90
11925;DHT22;6022;48.768;18.608;2023-11-18T13:55:54;7.70;99.90
11925;DHT22;6022;48.768;18.608;2023-11-18T13:58:21;7.40;99.90
11925;DHT22;6022;48.768;18.608;2023-11-18T14:00:51;7.40;99.90
11925;DHT22;6022;48.768;18.608;2023-11-18T14:03:19;7.00;99.90
11925;DHT22;6022;48.768;18.608;2023-11-18T14:05:51;7.70;99.90
11925;DHT22;6022;48.768;18.608;2023-11-18T14:08:19;7.40;99.90
11925;DHT22;6022;48.768;18.608;2023-11-18T14:10:47;7.50;99.90
11925;DHT22;6022;48.768;18.608;2023-11-18T14:13:29;7.00;99.90
11925;DHT22;6022;48.768;18.608;2023-11-18T14:15:58;7.00;99.90
11925;DHT22;6022;48.768;18.608;2023-11-18T14:18:30;6.90;99.90
11925;DHT22;6022;48.768;18.608;2023-11-18T14:20:58;6.30;99.90
11925;DHT22;6022;48.768;18.608;2023-11-18T14:23:29;6.50;99.90
11925;DHT22;6022;48.768;18.608;2023-11-18T14:26:00;6.70;99.90
11925;DHT22;6022;48.768;18.608;2023-11-18T14:28:27;6.50;99.90
11925;DHT22;6022;48.768;18.608;2023-11-18T14:31:16;6.40;99.90
11925;DHT22;6022;48.768;18.608;2023-11-18T14:33:44;6.90;99.90
11925;DHT22;6022;48.768;18.608;2023-11-18T14:39:52;6.70;99.90
11925;DHT22;6022;48.768;18.608;2023-11-18T14:42:22;6.60;99.90
11925;DHT22;6022;48.768;18.608;2023-11-18T14:44:51;6.80;99.90
11925;DHT22;6022;48.768;18.608;2023-11-18T14:47:32;5.70;99.90
11925;DHT22;6022;48.768;18.608;2023-11-18T14:50:20;6.60;99.90
11925;DHT22;6022;48.768;18.608;2023-11-18T14:53:25;6.50;99.90
11925;DHT22;6022;48.768;18.608;2023-11-18T14:58:25;6.20;99.90
11925;DHT22;6022;48.768;18.608;2023-11-18T15:00:53;6.20;99.90
11925;DHT22;6022;48.768;18.608;2023-11-18T15:05:54;5.60;99.90
11925;DHT22;6022;48.768;18.608;2023-11-18T15:08:22;6.40;99.90
11925;DHT22;6022;48.768;18.608;2023-11-18T15:28:30;6.20;99.90
11925;DHT22;6022;48.768;18.608;2023-11-18T15:31:58;6.10;99.90
11925;DHT22;6022;48.768;18.608;2023-11-18T15:34:26;5.80;99.90
11925;DHT22;6022;48.768;18.608;2023-11-18T15:39:21;5.80;99.90
11925;DHT22;6022;48.768;18.608;2023-11-18T15:41:50;5.40;99.90
11925;DHT22;6022;48.768;18.608;2023-11-18T15:44:18;5.40;99.90
11925;DHT22;6022;48.768;18.608;2023-11-18T15:47:19;5.80;99.90
11925;DHT22;6022;48.768;18.608;2023-11-18T15:50:25;6.10;99.90
11925;DHT22;6022;48.768;18.608;2023-11-18T15:53:17;6.40;99.90
11925;DHT22;6022;48.768;18.608;2023-11-18T15:58:47;5.40;99.90
11925;DHT22;6022;48.768;18.608;2023-11-18T16:03:42;5.70;99.90
11925;DHT22;6022;48.768;18.608;2023-11-18T16:08:40;5.50;99.90
11925;DHT22;6022;48.768;18.608;2023-11-18T16:16:05;5.50;99.90
11925;DHT22;6022;48.768;18.608;2023-11-18T16:18:45;5.30;99.90
11925;DHT22;6022;48.768;18.608;2023-11-18T16:23:44;5.50;99.90
11925;DHT22;6022;48.768;18.608;2023-11-18T16:26:12;5.20;99.90
11925;DHT22;6022;48.768;18.608;2023-11-18T16:36:06;4.80;99.90
11925;DHT22;6022;48.768;18.608;2023-11-18T16:41:02;4.80;99.90
11925;DHT22;6022;48.768;18.608;2023-11-18T16:43:45;5.10;99.90
11925;DHT22;6022;48.768;18.608;2023-11-18T16:46:14;4.80;99.90
11925;DHT22;6022;48.768;18.608;2023-11-18T16:48:42;5.00;99.90
11925;DHT22;6022;48.768;18.608;2023-11-18T16:51:10;4.70;99.90
11925;DHT22;6022;48.768;18.608;2023-11-18T16:53:38;5.00;99.90
11925;DHT22;6022;48.768;18.608;2023-11-18T16:56:05;4.80;99.90
11925;DHT22;6022;48.768;18.608;2023-11-18T17:06:02;5.60;99.90
11925;DHT22;6022;48.768;18.608;2023-11-18T17:10:58;4.60;99.90
11925;DHT22;6022;48.768;18.608;2023-11-18T17:13:26;5.50;99.90
11925;DHT22;6022;48.768;18.608;2023-11-18T17:18:27;5.30;99.90
11925;DHT22;6022;48.768;18.608;2023-11-18T17:23:30;5.00;99.90
11925;DHT22;6022;48.768;18.608;2023-11-18T17:26:04;5.10;99.90
11925;DHT22;6022;48.768;18.608;2023-11-18T17:33:31;5.60;99.90
11925;DHT22;6022;48.768;18.608;2023-11-18T17:46:05;4.90;99.90
11925;DHT22;6022;48.768;18.608;2023-11-18T17:56:09;3.20;99.90
11925;DHT22;6022;48.768;18.608;2023-11-18T17:59:16;4.80;99.90
11925;DHT22;6022;48.768;18.608;2023-11-18T18:02:14;5.00;99.90
11925;DHT22;6022;48.768;18.608;2023-11-18T18:10:04;5.00;99.90
11925;DHT22;6022;48.768;18.608;2023-11-18T18:25:08;4.80;99.90
11925;DHT22;6022;48.768;18.608;2023-11-18T18:30:13;4.80;99.90
11925;DHT22;6022;48.768;18.608;2023-11-18T18:35:10;4.50;99.90
11925;DHT22;6022;48.768;18.608;2023-11-18T18:37:40;4.50;99.90
11925;DHT22;6022;48.768;18.608;2023-11-18T18:40:08;4.50;99.90
11925;DHT22;6022;48.768;18.608;2023-11-18T18:47:36;5.10;99.90
11925;DHT22;6022;48.768;18.608;2023-11-18T18:57:51;4.30;99.90
11925;DHT22;6022;48.768;18.608;2023-11-18T19:00:26;4.30;99.90
11925;DHT22;6022;48.768;18.608;2023-11-18T19:03:10;4.40;99.90
11925;DHT22;6022;48.768;18.608;2023-11-18T19:05:44;4.30;99.90
11925;DHT22;6022;48.768;18.608;2023-11-18T19:18:10;2.80;99.90
11925;DHT22;6022;48.768;18.608;2023-11-18T19:23:13;2.90;99.90
11925;DHT22;6022;48.768;18.608;2023-11-18T19:30:54;4.60;99.90
11925;DHT22;6022;48.768;18.608;2023-11-18T19:36:12;3.70;99.90
11925;DHT22;6022;48.768;18.608;2023-11-18T19:38:44;5.00;99.90
11925;DHT22;6022;48.768;18.608;2023-11-18T19:44:13;4.50;99.90
11925;DHT22;6022;48.768;18.608;2023-11-18T20:01:53;4.30;99.90
11925;DHT22;6022;48.768;18.608;2023-11-18T20:06:52;4.10;99.90
11925;DHT22;6022;48.768;18.608;2023-11-18T20:09:40;6.70;99.90
11925;DHT22;6022;48.768;18.608;2023-11-18T20:19:37;4.10;99.90
11925;DHT22;6022;48.768;18.608;2023-11-18T20:24:34;4.20;99.90
11925;DHT22;6022;48.768;18.608;2023-11-18T20:37:02;4.50;99.90
11925;DHT22;6022;48.768;18.608;2023-11-18T20:39:32;4.10;99.90
11925;DHT22;6022;48.768;18.608;2023-11-18T20:42:06;3.60;99.90
11925;DHT22;6022;48.768;18.608;2023-11-18T20:44:34;4.10;99.90
11925;DHT22;6022;48.768;18.608;2023-11-18T20:47:05;4.10;99.90
11925;DHT22;6022;48.768;18.608;2023-11-18T20:49:34;4.20;99.90
11925;DHT22;6022;48.768;18.608;2023-11-18T20:54:36;4.10;99.90
11925;DHT22;6022;48.768;18.608;2023-11-18T21:14:48;4.00;99.90
11925;DHT22;6022;48.768;18.608;2023-11-18T21:24:49;2.40;99.90
11925;DHT22;6022;48.768;18.608;2023-11-18T21:34:45;4.40;99.90
11925;DHT22;6022;48.768;18.608;2023-11-18T21:40:13;4.80;99.90
11925;DHT22;6022;48.768;18.608;2023-11-18T21:42:41;3.80;99.90
11925;DHT22;6022;48.768;18.608;2023-11-18T21:45:11;3.80;99.90
11925;DHT22;6022;48.768;18.608;2023-11-18T21:47:44;4.30;99.90
11925;DHT22;6022;48.768;18.608;2023-11-18T21:52:52;4.10;99.90
11925;DHT22;6022;48.768;18.608;2023-11-18T21:55:20;4.30;99.90
11925;DHT22;6022;48.768;18.608;2023-11-18T21:57:49;3.30;99.90
11925;DHT22;6022;48.768;18.608;2023-11-18T22:02:46;3.80;99.90
11925;DHT22;6022;48.768;18.608;2023-11-18T22:22:54;3.90;99.90
11925;DHT22;6022;48.768;18.608;2023-11-18T22:30:23;3.80;99.90
11925;DHT22;6022;48.768;18.608;2023-11-18T22:35:27;3.80;99.90
11925;DHT22;6022;48.768;18.608;2023-11-18T22:51:15;3.60;99.90
11925;DHT22;6022;48.768;18.608;2023-11-18T23:06:45;3.70;99.90
11925;DHT22;6022;48.768;18.608;2023-11-18T23:11:52;3.40;99.90
11925;DHT22;6022;48.768;18.608;2023-11-18T23:14:23;3.60;99.90
11925;DHT22;6022;48.768;18.608;2023-11-18T23:46:47;3.50;99.90
11925;DHT22;6022;48.768;18.608;2023-11-18T23:56:53;3.50;99.90
